sensor_id;sensor_type;location;lat;lon;timestamp;pressure;altitude;pressure_sealevel;temperature;humidity
51759;BME280;66684;47.568;18.734;2023-07-08T00:00:11;100026.78;;;17.17;93.02
51759;BME280;66684;47.568;18.734;2023-07-08T00:02:37;100022.47;;;17.19;93.02
51759;BME280;66684;47.568;18.734;2023-07-08T00:05:03;100021.38;;;17.08;93.74
51759;BME280;66684;47.568;18.734;2023-07-08T00:07:29;100024.69;;;17.01;94.08
51759;BME280;66684;47.568;18.734;2023-07-08T00:09:55;100030.00;;;17.04;93.19
51759;BME280;66684;47.568;18.734;2023-07-08T00:12:21;100029.19;;;17.07;91.99
51759;BME280;66684;47.568;18.734;2023-07-08T00:14:47;100024.91;;;17.10;92.11
51759;BME280;66684;47.568;18.734;2023-07-08T00:17:13;100030.03;;;17.06;93.76
51759;BME280;66684;47.568;18.734;2023-07-08T00:19:39;100030.78;;;17.00;94.19
51759;BME280;66684;47.568;18.734;2023-07-08T00:22:12;100025.25;;;16.86;94.59
51759;BME280;66684;47.568;18.734;2023-07-08T00:24:41;100020.03;;;16.86;94.58
51759;BME280;66684;47.568;18.734;2023-07-08T00:27:10;100015.59;;;16.82;95.00
51759;BME280;66684;47.568;18.734;2023-07-08T00:29:38;100024.09;;;16.74;95.34
51759;BME280;66684;47.568;18.734;2023-07-08T00:32:10;100020.66;;;16.76;94.57
51759;BME280;66684;47.568;18.734;2023-07-08T00:34:36;100022.41;;;16.76;94.91
51759;BME280;66684;47.568;18.734;2023-07-08T00:37:02;100027.31;;;16.63;97.57
51759;BME280;66684;47.568;18.734;2023-07-08T00:39:32;100028.19;;;16.64;98.14
51759;BME280;66684;47.568;18.734;2023-07-08T00:42:00;100026.75;;;16.75;96.29
51759;BME280;66684;47.568;18.734;2023-07-08T00:44:27;100023.44;;;16.84;95.76
51759;BME280;66684;47.568;18.734;2023-07-08T00:47:07;100020.34;;;16.62;97.23
51759;BME280;66684;47.568;18.734;2023-07-08T00:52:28;100028.00;;;16.55;98.67
51759;BME280;66684;47.568;18.734;2023-07-08T00:55:14;100021.06;;;16.57;98.21
51759;BME280;66684;47.568;18.734;2023-07-08T00:57:43;100014.00;;;16.53;97.70
51759;BME280;66684;47.568;18.734;2023-07-08T01:00:13;100018.06;;;16.40;98.99
51759;BME280;66684;47.568;18.734;2023-07-08T01:02:46;100024.78;;;16.29;99.70
51759;BME280;66684;47.568;18.734;2023-07-08T01:05:17;100021.22;;;16.27;100.00
51759;BME280;66684;47.568;18.734;2023-07-08T01:07:48;100024.53;;;16.19;100.00
51759;BME280;66684;47.568;18.734;2023-07-08T01:10:22;100021.00;;;16.17;100.00
51759;BME280;66684;47.568;18.734;2023-07-08T01:12:53;100027.78;;;16.09;100.00
51759;BME280;66684;47.568;18.734;2023-07-08T01:15:23;100017.03;;;15.97;100.00
51759;BME280;66684;47.568;18.734;2023-07-08T01:17:51;100020.66;;;15.71;100.00
51759;BME280;66684;47.568;18.734;2023-07-08T01:20:19;100018.16;;;15.74;100.00
51759;BME280;66684;47.568;18.734;2023-07-08T01:22:45;100015.03;;;15.87;100.00
51759;BME280;66684;47.568;18.734;2023-07-08T01:25:11;100022.09;;;15.91;100.00
51759;BME280;66684;47.568;18.734;2023-07-08T01:27:42;100019.22;;;15.82;100.00
51759;BME280;66684;47.568;18.734;2023-07-08T01:30:10;100019.75;;;15.69;100.00
51759;BME280;66684;47.568;18.734;2023-07-08T01:32:39;100018.28;;;15.47;100.00
51759;BME280;66684;47.568;18.734;2023-07-08T01:35:09;100019.38;;;15.56;100.00
51759;BME280;66684;47.568;18.734;2023-07-08T01:38:00;100024.53;;;15.53;100.00
51759;BME280;66684;47.568;18.734;2023-07-08T01:40:25;100029.91;;;15.59;100.00
51759;BME280;66684;47.568;18.734;2023-07-08T01:42:52;100024.00;;;15.65;100.00
51759;BME280;66684;47.568;18.734;2023-07-08T01:45:20;100020.63;;;15.69;100.00
51759;BME280;66684;47.568;18.734;2023-07-08T01:47:50;100024.97;;;15.69;100.00
51759;BME280;66684;47.568;18.734;2023-07-08T01:50:18;100021.44;;;15.67;100.00
51759;BME280;66684;47.568;18.734;2023-07-08T01:52:44;100020.97;;;15.51;100.00
51759;BME280;66684;47.568;18.734;2023-07-08T01:55:10;100018.53;;;15.57;100.00
51759;BME280;66684;47.568;18.734;2023-07-08T01:57:36;100016.78;;;15.56;100.00
51759;BME280;66684;47.568;18.734;2023-07-08T02:00:02;100019.31;;;15.53;100.00
51759;BME280;66684;47.568;18.734;2023-07-08T02:02:28;100011.69;;;15.61;100.00
51759;BME280;66684;47.568;18.734;2023-07-08T02:04:54;100010.72;;;15.57;100.00
51759;BME280;66684;47.568;18.734;2023-07-08T02:07:20;100012.31;;;15.52;100.00
51759;BME280;66684;47.568;18.734;2023-07-08T02:09:46;100011.44;;;15.52;100.00
51759;BME280;66684;47.568;18.734;2023-07-08T02:12:12;100020.81;;;15.45;100.00
51759;BME280;66684;47.568;18.734;2023-07-08T02:14:38;100016.28;;;15.38;100.00
51759;BME280;66684;47.568;18.734;2023-07-08T02:17:04;100017.13;;;15.37;100.00
51759;BME280;66684;47.568;18.734;2023-07-08T02:19:31;100021.31;;;15.32;100.00
51759;BME280;66684;47.568;18.734;2023-07-08T02:21:57;100018.81;;;15.35;100.00
51759;BME280;66684;47.568;18.734;2023-07-08T02:24:23;100011.53;;;15.23;100.00
51759;BME280;66684;47.568;18.734;2023-07-08T02:26:49;100017.34;;;15.15;100.00
51759;BME280;66684;47.568;18.734;2023-07-08T02:29:15;100021.72;;;15.16;100.00
51759;BME280;66684;47.568;18.734;2023-07-08T02:31:41;100018.00;;;15.07;100.00
51759;BME280;66684;47.568;18.734;2023-07-08T02:34:06;100019.63;;;15.02;100.00
51759;BME280;66684;47.568;18.734;2023-07-08T02:36:33;100009.84;;;14.95;100.00
51759;BME280;66684;47.568;18.734;2023-07-08T02:39:00;100009.41;;;15.10;100.00
51759;BME280;66684;47.568;18.734;2023-07-08T02:41:25;100012.78;;;15.07;100.00
51759;BME280;66684;47.568;18.734;2023-07-08T02:43:51;100014.47;;;15.05;100.00
51759;BME280;66684;47.568;18.734;2023-07-08T02:46:17;100018.69;;;15.02;100.00
51759;BME280;66684;47.568;18.734;2023-07-08T02:48:43;100021.19;;;14.97;100.00
51759;BME280;66684;47.568;18.734;2023-07-08T02:51:09;100022.78;;;14.92;100.00
51759;BME280;66684;47.568;18.734;2023-07-08T02:53:35;100027.78;;;14.86;100.00
51759;BME280;66684;47.568;18.734;2023-07-08T02:56:01;100029.59;;;14.89;100.00
51759;BME280;66684;47.568;18.734;2023-07-08T02:58:27;100027.97;;;14.92;100.00
51759;BME280;66684;47.568;18.734;2023-07-08T03:00:53;100020.37;;;15.00;100.00
51759;BME280;66684;47.568;18.734;2023-07-08T03:03:19;100025.91;;;14.82;100.00
51759;BME280;66684;47.568;18.734;2023-07-08T03:05:56;100029.69;;;14.63;100.00
51759;BME280;66684;47.568;18.734;2023-07-08T03:08:23;100028.91;;;14.66;100.00
51759;BME280;66684;47.568;18.734;2023-07-08T03:10:55;100032.97;;;14.84;100.00
51759;BME280;66684;47.568;18.734;2023-07-08T03:13:22;100027.31;;;14.99;100.00
51759;BME280;66684;47.568;18.734;2023-07-08T03:15:48;100033.37;;;14.98;100.00
51759;BME280;66684;47.568;18.734;2023-07-08T03:18:13;100034.94;;;14.93;100.00
51759;BME280;66684;47.568;18.734;2023-07-08T03:20:40;100038.66;;;14.73;100.00
51759;BME280;66684;47.568;18.734;2023-07-08T03:23:06;100033.16;;;14.64;100.00
51759;BME280;66684;47.568;18.734;2023-07-08T03:25:32;100036.44;;;14.85;100.00
51759;BME280;66684;47.568;18.734;2023-07-08T03:27:58;100038.19;;;14.86;100.00
51759;BME280;66684;47.568;18.734;2023-07-08T03:30:26;100041.63;;;14.85;100.00
51759;BME280;66684;47.568;18.734;2023-07-08T03:32:52;100034.22;;;14.97;100.00
51759;BME280;66684;47.568;18.734;2023-07-08T03:35:20;100034.94;;;14.93;100.00
51759;BME280;66684;47.568;18.734;2023-07-08T03:37:47;100042.00;;;14.97;100.00
51759;BME280;66684;47.568;18.734;2023-07-08T03:40:13;100044.50;;;14.94;100.00
51759;BME280;66684;47.568;18.734;2023-07-08T03:42:39;100046.91;;;14.88;100.00
51759;BME280;66684;47.568;18.734;2023-07-08T03:45:06;100044.03;;;15.07;100.00
51759;BME280;66684;47.568;18.734;2023-07-08T03:47:31;100047.66;;;15.13;100.00
51759;BME280;66684;47.568;18.734;2023-07-08T03:49:57;100043.66;;;15.24;100.00
51759;BME280;66684;47.568;18.734;2023-07-08T03:52:23;100048.03;;;15.26;100.00
51759;BME280;66684;47.568;18.734;2023-07-08T03:54:49;100040.00;;;15.17;100.00
51759;BME280;66684;47.568;18.734;2023-07-08T03:57:15;100042.12;;;15.32;100.00
51759;BME280;66684;47.568;18.734;2023-07-08T03:59:41;100045.94;;;15.43;100.00
51759;BME280;66684;47.568;18.734;2023-07-08T04:02:12;100047.72;;;15.46;100.00
51759;BME280;66684;47.568;18.734;2023-07-08T04:04:38;100054.00;;;15.52;100.00
51759;BME280;66684;47.568;18.734;2023-07-08T04:07:05;100054.91;;;15.53;100.00
51759;BME280;66684;47.568;18.734;2023-07-08T04:09:31;100059.06;;;15.46;100.00
51759;BME280;66684;47.568;18.734;2023-07-08T04:11:57;100057.53;;;15.54;100.00
51759;BME280;66684;47.568;18.734;2023-07-08T04:14:24;100054.16;;;15.58;100.00
51759;BME280;66684;47.568;18.734;2023-07-08T04:16:57;100053.47;;;15.64;100.00
51759;BME280;66684;47.568;18.734;2023-07-08T04:19:25;100059.84;;;15.74;100.00
51759;BME280;66684;47.568;18.734;2023-07-08T04:21:52;100058.41;;;15.85;100.00
51759;BME280;66684;47.568;18.734;2023-07-08T04:24:18;100057.03;;;15.99;100.00
51759;BME280;66684;47.568;18.734;2023-07-08T04:26:46;100053.91;;;16.12;100.00
51759;BME280;66684;47.568;18.734;2023-07-08T04:29:15;100054.97;;;16.21;100.00
51759;BME280;66684;47.568;18.734;2023-07-08T04:31:42;100060.44;;;16.30;100.00
51759;BME280;66684;47.568;18.734;2023-07-08T04:34:08;100056.06;;;16.29;100.00
51759;BME280;66684;47.568;18.734;2023-07-08T04:36:35;100053.59;;;16.35;100.00
51759;BME280;66684;47.568;18.734;2023-07-08T04:39:02;100055.44;;;16.40;100.00
51759;BME280;66684;47.568;18.734;2023-07-08T04:41:29;100061.78;;;16.50;100.00
51759;BME280;66684;47.568;18.734;2023-07-08T04:43:54;100054.88;;;16.52;100.00
51759;BME280;66684;47.568;18.734;2023-07-08T04:49:07;100060.66;;;16.74;100.00
51759;BME280;66684;47.568;18.734;2023-07-08T04:51:36;100057.37;;;16.84;100.00
51759;BME280;66684;47.568;18.734;2023-07-08T04:54:02;100061.06;;;16.92;100.00
51759;BME280;66684;47.568;18.734;2023-07-08T04:56:40;100060.41;;;17.02;100.00
51759;BME280;66684;47.568;18.734;2023-07-08T04:59:17;100065.03;;;17.15;100.00
51759;BME280;66684;47.568;18.734;2023-07-08T05:01:44;100065.13;;;17.18;100.00
51759;BME280;66684;47.568;18.734;2023-07-08T05:04:13;100069.38;;;17.15;100.00
51759;BME280;66684;47.568;18.734;2023-07-08T05:06:40;100070.38;;;17.21;100.00
51759;BME280;66684;47.568;18.734;2023-07-08T05:09:06;100066.16;;;17.28;100.00
51759;BME280;66684;47.568;18.734;2023-07-08T05:11:34;100074.13;;;17.33;100.00
51759;BME280;66684;47.568;18.734;2023-07-08T05:14:01;100072.50;;;17.39;100.00
51759;BME280;66684;47.568;18.734;2023-07-08T05:16:27;100071.03;;;17.52;100.00
51759;BME280;66684;47.568;18.734;2023-07-08T05:18:53;100073.03;;;17.65;100.00
51759;BME280;66684;47.568;18.734;2023-07-08T05:21:20;100067.91;;;17.70;100.00
51759;BME280;66684;47.568;18.734;2023-07-08T05:23:47;100070.06;;;17.91;100.00
51759;BME280;66684;47.568;18.734;2023-07-08T05:26:15;100079.94;;;18.07;100.00
51759;BME280;66684;47.568;18.734;2023-07-08T05:28:41;100081.06;;;18.21;100.00
51759;BME280;66684;47.568;18.734;2023-07-08T05:31:07;100082.22;;;18.36;100.00
51759;BME280;66684;47.568;18.734;2023-07-08T05:33:33;100083.25;;;18.47;100.00
51759;BME280;66684;47.568;18.734;2023-07-08T05:36:00;100082.47;;;18.52;100.00
51759;BME280;66684;47.568;18.734;2023-07-08T05:38:26;100087.13;;;18.67;100.00
51759;BME280;66684;47.568;18.734;2023-07-08T05:40:57;100093.44;;;18.83;100.00
51759;BME280;66684;47.568;18.734;2023-07-08T05:43:24;100100.53;;;18.90;100.00
51759;BME280;66684;47.568;18.734;2023-07-08T05:45:51;100097.09;;;18.93;100.00
51759;BME280;66684;47.568;18.734;2023-07-08T05:48:17;100098.09;;;19.04;100.00
51759;BME280;66684;47.568;18.734;2023-07-08T05:50:44;100099.16;;;19.17;100.00
51759;BME280;66684;47.568;18.734;2023-07-08T05:53:11;100094.94;;;19.26;100.00
51759;BME280;66684;47.568;18.734;2023-07-08T05:55:37;100102.00;;;19.33;100.00
51759;BME280;66684;47.568;18.734;2023-07-08T05:58:03;100103.91;;;19.44;100.00
51759;BME280;66684;47.568;18.734;2023-07-08T06:00:29;100098.69;;;19.48;100.00
51759;BME280;66684;47.568;18.734;2023-07-08T06:02:55;100106.62;;;19.51;100.00
51759;BME280;66684;47.568;18.734;2023-07-08T06:05:21;100097.13;;;19.61;100.00
51759;BME280;66684;47.568;18.734;2023-07-08T06:07:47;100107.59;;;19.58;100.00
51759;BME280;66684;47.568;18.734;2023-07-08T06:10:13;100111.06;;;19.57;100.00
51759;BME280;66684;47.568;18.734;2023-07-08T06:12:39;100114.53;;;19.56;100.00
51759;BME280;66684;47.568;18.734;2023-07-08T06:15:05;100118.16;;;19.64;99.72
51759;BME280;66684;47.568;18.734;2023-07-08T06:17:31;100116.56;;;19.78;99.03
51759;BME280;66684;47.568;18.734;2023-07-08T06:19:57;100114.09;;;19.90;98.45
51759;BME280;66684;47.568;18.734;2023-07-08T06:22:23;100112.50;;;20.05;96.12
51759;BME280;66684;47.568;18.734;2023-07-08T06:24:48;100112.72;;;20.29;93.66
51759;BME280;66684;47.568;18.734;2023-07-08T06:27:14;100101.59;;;20.52;88.75
51759;BME280;66684;47.568;18.734;2023-07-08T06:29:41;100106.13;;;20.72;84.28
51759;BME280;66684;47.568;18.734;2023-07-08T06:32:07;100103.66;;;20.92;77.46
51759;BME280;66684;47.568;18.734;2023-07-08T06:34:33;100100.25;;;21.09;68.88
51759;BME280;66684;47.568;18.734;2023-07-08T06:36:59;100107.38;;;21.28;67.40
51759;BME280;66684;47.568;18.734;2023-07-08T06:39:25;100100.44;;;21.33;68.42
51759;BME280;66684;47.568;18.734;2023-07-08T06:41:51;100097.00;;;21.52;67.38
51759;BME280;66684;47.568;18.734;2023-07-08T06:44:16;100099.72;;;21.77;65.98
51759;BME280;66684;47.568;18.734;2023-07-08T06:46:43;100100.66;;;21.97;67.42
51759;BME280;66684;47.568;18.734;2023-07-08T06:49:09;100101.53;;;22.05;64.56
51759;BME280;66684;47.568;18.734;2023-07-08T06:51:37;100098.06;;;22.06;65.83
51759;BME280;66684;47.568;18.734;2023-07-08T06:54:03;100093.69;;;22.15;65.91
51759;BME280;66684;47.568;18.734;2023-07-08T06:56:40;100093.72;;;22.42;66.01
51759;BME280;66684;47.568;18.734;2023-07-08T06:59:07;100095.47;;;22.58;63.92
51759;BME280;66684;47.568;18.734;2023-07-08T07:01:33;100091.06;;;22.80;65.16
51759;BME280;66684;47.568;18.734;2023-07-08T07:04:00;100091.06;;;23.02;67.22
51759;BME280;66684;47.568;18.734;2023-07-08T07:06:26;100092.81;;;22.98;63.84
51759;BME280;66684;47.568;18.734;2023-07-08T07:08:52;100079.62;;;23.13;59.64
51759;BME280;66684;47.568;18.734;2023-07-08T07:11:18;100080.50;;;23.06;58.25
51759;BME280;66684;47.568;18.734;2023-07-08T07:13:46;100075.22;;;23.05;57.91
51759;BME280;66684;47.568;18.734;2023-07-08T07:16:12;100072.62;;;22.94;56.75
51759;BME280;66684;47.568;18.734;2023-07-08T07:18:38;100081.41;;;23.07;58.04
51759;BME280;66684;47.568;18.734;2023-07-08T07:21:04;100071.72;;;23.10;55.88
51759;BME280;66684;47.568;18.734;2023-07-08T07:23:29;100084.87;;;23.26;56.60
51759;BME280;66684;47.568;18.734;2023-07-08T07:25:55;100075.13;;;23.40;54.00
51759;BME280;66684;47.568;18.734;2023-07-08T07:28:23;100081.25;;;23.42;52.62
51759;BME280;66684;47.568;18.734;2023-07-08T07:30:56;100076.81;;;23.59;49.71
51759;BME280;66684;47.568;18.734;2023-07-08T07:33:22;100078.56;;;23.66;52.72
51759;BME280;66684;47.568;18.734;2023-07-08T07:35:48;100080.31;;;23.55;52.31
51759;BME280;66684;47.568;18.734;2023-07-08T07:38:15;100077.56;;;23.86;53.51
51759;BME280;66684;47.568;18.734;2023-07-08T07:40:42;100072.13;;;24.10;53.08
51759;BME280;66684;47.568;18.734;2023-07-08T07:43:09;100084.34;;;24.23;51.48
51759;BME280;66684;47.568;18.734;2023-07-08T07:45:35;100078.88;;;24.51;51.10
51759;BME280;66684;47.568;18.734;2023-07-08T07:48:01;100075.47;;;24.40;49.47
51759;BME280;66684;47.568;18.734;2023-07-08T07:50:28;100075.41;;;24.46;51.17
51759;BME280;66684;47.568;18.734;2023-07-08T07:52:54;100077.84;;;24.69;49.56
51759;BME280;66684;47.568;18.734;2023-07-08T07:55:20;100068.28;;;24.54;47.83
51759;BME280;66684;47.568;18.734;2023-07-08T07:57:46;100062.84;;;24.72;49.22
51759;BME280;66684;47.568;18.734;2023-07-08T08:00:13;100063.56;;;24.90;48.71
51759;BME280;66684;47.568;18.734;2023-07-08T08:02:43;100062.44;;;25.12;48.41
51759;BME280;66684;47.568;18.734;2023-07-08T08:05:09;100062.22;;;25.31;48.16
51759;BME280;66684;47.568;18.734;2023-07-08T08:07:35;100069.47;;;25.13;47.33
51759;BME280;66684;47.568;18.734;2023-07-08T08:10:03;100060.25;;;24.68;45.13
51759;BME280;66684;47.568;18.734;2023-07-08T08:12:29;100061.88;;;24.81;47.04
51759;BME280;66684;47.568;18.734;2023-07-08T08:14:55;100055.50;;;24.99;48.18
51759;BME280;66684;47.568;18.734;2023-07-08T08:17:21;100051.91;;;25.09;47.50
51759;BME280;66684;47.568;18.734;2023-07-08T08:19:47;100050.09;;;25.14;47.06
51759;BME280;66684;47.568;18.734;2023-07-08T08:22:13;100053.31;;;25.38;46.56
51759;BME280;66684;47.568;18.734;2023-07-08T08:24:39;100055.41;;;25.11;45.87
51759;BME280;66684;47.568;18.734;2023-07-08T08:27:05;100052.34;;;25.46;46.46
51759;BME280;66684;47.568;18.734;2023-07-08T08:29:31;100047.63;;;25.68;45.27
51759;BME280;66684;47.568;18.734;2023-07-08T08:31:57;100054.53;;;25.81;47.30
51759;BME280;66684;47.568;18.734;2023-07-08T08:34:23;100056.91;;;26.00;45.17
51759;BME280;66684;47.568;18.734;2023-07-08T08:36:48;100061.22;;;26.07;44.62
51759;BME280;66684;47.568;18.734;2023-07-08T08:39:14;100043.63;;;26.03;44.27
51759;BME280;66684;47.568;18.734;2023-07-08T08:41:42;100044.94;;;25.70;43.95
51759;BME280;66684;47.568;18.734;2023-07-08T08:44:14;100044.81;;;25.84;45.85
51759;BME280;66684;47.568;18.734;2023-07-08T08:49:44;100044.31;;;26.14;46.98
51759;BME280;66684;47.568;18.734;2023-07-08T08:52:14;100037.97;;;26.24;44.40
51759;BME280;66684;47.568;18.734;2023-07-08T08:54:40;100041.31;;;26.37;44.79
51759;BME280;66684;47.568;18.734;2023-07-08T08:59:53;100042.59;;;26.67;42.55
51759;BME280;66684;47.568;18.734;2023-07-08T09:02:41;100034.19;;;26.92;43.28
51759;BME280;66684;47.568;18.734;2023-07-08T09:05:10;100033.03;;;27.05;41.81
51759;BME280;66684;47.568;18.734;2023-07-08T09:11:15;100041.31;;;27.34;43.44
51759;BME280;66684;47.568;18.734;2023-07-08T09:13:44;100032.72;;;27.20;43.59
51759;BME280;66684;47.568;18.734;2023-07-08T09:16:43;100030.03;;;27.23;42.44
51759;BME280;66684;47.568;18.734;2023-07-08T09:19:13;100020.84;;;26.95;40.65
51759;BME280;66684;47.568;18.734;2023-07-08T09:21:48;100034.22;;;26.88;40.81
51759;BME280;66684;47.568;18.734;2023-07-08T09:24:24;100037.09;;;26.78;41.03
51759;BME280;66684;47.568;18.734;2023-07-08T09:26:54;100040.72;;;27.19;41.80
51759;BME280;66684;47.568;18.734;2023-07-08T09:29:22;100028.47;;;27.13;40.00
51759;BME280;66684;47.568;18.734;2023-07-08T09:31:48;100029.00;;;27.30;41.09
51759;BME280;66684;47.568;18.734;2023-07-08T09:34:17;100031.28;;;27.04;42.28
51759;BME280;66684;47.568;18.734;2023-07-08T09:36:45;100040.37;;;26.91;43.89
51759;BME280;66684;47.568;18.734;2023-07-08T09:39:14;100031.19;;;27.10;42.65
51759;BME280;66684;47.568;18.734;2023-07-08T09:41:42;100030.31;;;27.08;41.79
51759;BME280;66684;47.568;18.734;2023-07-08T09:44:21;100027.03;;;27.38;39.49
51759;BME280;66684;47.568;18.734;2023-07-08T09:46:49;100021.69;;;27.41;39.84
51759;BME280;66684;47.568;18.734;2023-07-08T09:51:46;100020.25;;;27.25;39.72
51759;BME280;66684;47.568;18.734;2023-07-08T09:54:12;100028.91;;;27.35;42.26
51759;BME280;66684;47.568;18.734;2023-07-08T09:56:41;100025.69;;;27.19;38.35
51759;BME280;66684;47.568;18.734;2023-07-08T09:59:12;100022.94;;;27.24;38.92
51759;BME280;66684;47.568;18.734;2023-07-08T10:01:41;100018.81;;;27.09;39.33
51759;BME280;66684;47.568;18.734;2023-07-08T10:04:07;100017.03;;;27.11;36.29
51759;BME280;66684;47.568;18.734;2023-07-08T10:06:34;100007.50;;;26.53;37.67
51759;BME280;66684;47.568;18.734;2023-07-08T10:09:09;100016.44;;;26.46;36.84
51759;BME280;66684;47.568;18.734;2023-07-08T10:11:42;100010.63;;;26.75;36.65
51759;BME280;66684;47.568;18.734;2023-07-08T10:14:37;100003.69;;;27.14;36.58
51759;BME280;66684;47.568;18.734;2023-07-08T10:17:00;100000.37;;;27.45;37.13
51759;BME280;66684;47.568;18.734;2023-07-08T10:19:27;100000.78;;;27.66;35.24
51759;BME280;66684;47.568;18.734;2023-07-08T10:22:34;100000.50;;;27.80;36.65
51759;BME280;66684;47.568;18.734;2023-07-08T10:25:06;99996.31;;;28.06;35.34
51759;BME280;66684;47.568;18.734;2023-07-08T10:27:47;99996.41;;;28.38;36.31
51759;BME280;66684;47.568;18.734;2023-07-08T10:30:24;99994.91;;;28.62;36.58
51759;BME280;66684;47.568;18.734;2023-07-08T10:36:00;99991.63;;;28.85;35.16
51759;BME280;66684;47.568;18.734;2023-07-08T10:38:59;99985.78;;;29.03;33.85
51759;BME280;66684;47.568;18.734;2023-07-08T10:50:01;99986.53;;;29.68;33.46
51759;BME280;66684;47.568;18.734;2023-07-08T10:53:00;99983.44;;;28.59;34.81
51759;BME280;66684;47.568;18.734;2023-07-08T10:55:38;99985.22;;;28.91;34.28
51759;BME280;66684;47.568;18.734;2023-07-08T10:58:28;99989.25;;;29.37;35.03
51759;BME280;66684;47.568;18.734;2023-07-08T11:01:23;99980.03;;;29.48;34.49
51759;BME280;66684;47.568;18.734;2023-07-08T11:09:13;99967.50;;;29.50;33.17
51759;BME280;66684;47.568;18.734;2023-07-08T11:11:53;99962.25;;;29.49;33.17
51759;BME280;66684;47.568;18.734;2023-07-08T11:14:39;99962.87;;;29.85;32.57
51759;BME280;66684;47.568;18.734;2023-07-08T11:17:17;99955.41;;;30.23;32.04
51759;BME280;66684;47.568;18.734;2023-07-08T11:19:50;99951.88;;;30.49;30.51
51759;BME280;66684;47.568;18.734;2023-07-08T11:22:18;99948.50;;;30.67;29.83
51759;BME280;66684;47.568;18.734;2023-07-08T11:24:49;99954.28;;;30.03;30.01
51759;BME280;66684;47.568;18.734;2023-07-08T11:27:25;99951.03;;;28.77;31.48
51759;BME280;66684;47.568;18.734;2023-07-08T11:30:06;99947.63;;;28.72;32.41
51759;BME280;66684;47.568;18.734;2023-07-08T11:32:39;99942.44;;;29.00;32.84
51759;BME280;66684;47.568;18.734;2023-07-08T11:35:17;99941.75;;;29.23;31.81
51759;BME280;66684;47.568;18.734;2023-07-08T11:37:47;99940.06;;;29.48;31.95
51759;BME280;66684;47.568;18.734;2023-07-08T11:40:21;99941.56;;;29.85;32.97
51759;BME280;66684;47.568;18.734;2023-07-08T11:42:49;99930.69;;;29.65;32.34
51759;BME280;66684;47.568;18.734;2023-07-08T11:45:27;99928.25;;;29.85;31.26
51759;BME280;66684;47.568;18.734;2023-07-08T11:48:05;99920.56;;;30.02;30.92
51759;BME280;66684;47.568;18.734;2023-07-08T11:50:36;99922.91;;;29.29;32.00
51759;BME280;66684;47.568;18.734;2023-07-08T11:53:10;99920.00;;;29.93;31.48
51759;BME280;66684;47.568;18.734;2023-07-08T11:56:02;99924.22;;;29.73;31.81
51759;BME280;66684;47.568;18.734;2023-07-08T12:01:26;99914.28;;;30.05;30.62
51759;BME280;66684;47.568;18.734;2023-07-08T12:09:27;99916.69;;;30.13;30.64
51759;BME280;66684;47.568;18.734;2023-07-08T12:11:58;99913.19;;;30.35;29.80
51759;BME280;66684;47.568;18.734;2023-07-08T12:14:25;99913.75;;;30.45;30.59
51759;BME280;66684;47.568;18.734;2023-07-08T12:16:52;99915.88;;;30.09;30.02
51759;BME280;66684;47.568;18.734;2023-07-08T12:19:20;99913.53;;;30.51;28.50
51759;BME280;66684;47.568;18.734;2023-07-08T12:21:47;99910.75;;;30.54;29.10
51759;BME280;66684;47.568;18.734;2023-07-08T12:24:14;99904.38;;;30.83;30.08
51759;BME280;66684;47.568;18.734;2023-07-08T12:26:41;99907.56;;;30.93;28.61
51759;BME280;66684;47.568;18.734;2023-07-08T12:29:11;99899.41;;;31.43;27.41
51759;BME280;66684;47.568;18.734;2023-07-08T12:31:40;99904.13;;;31.13;28.19
51759;BME280;66684;47.568;18.734;2023-07-08T12:34:15;99902.25;;;31.60;26.87
51759;BME280;66684;47.568;18.734;2023-07-08T12:36:43;99892.81;;;31.52;26.45
51759;BME280;66684;47.568;18.734;2023-07-08T12:39:14;99877.00;;;31.67;26.77
51759;BME280;66684;47.568;18.734;2023-07-08T12:41:41;99890.81;;;31.79;28.85
51759;BME280;66684;47.568;18.734;2023-07-08T12:44:16;99878.37;;;31.78;27.90
51759;BME280;66684;47.568;18.734;2023-07-08T12:46:44;99882.09;;;31.74;28.21
51759;BME280;66684;47.568;18.734;2023-07-08T12:49:10;99885.88;;;31.26;28.43
51759;BME280;66684;47.568;18.734;2023-07-08T12:51:37;99895.47;;;31.30;28.36
51759;BME280;66684;47.568;18.734;2023-07-08T12:54:03;99880.88;;;30.93;28.18
51759;BME280;66684;47.568;18.734;2023-07-08T12:56:28;99883.66;;;30.90;29.25
51759;BME280;66684;47.568;18.734;2023-07-08T12:58:57;99875.31;;;31.21;28.27
51759;BME280;66684;47.568;18.734;2023-07-08T13:01:26;99868.19;;;31.22;27.85
51759;BME280;66684;47.568;18.734;2023-07-08T13:03:56;99871.56;;;31.27;28.69
51759;BME280;66684;47.568;18.734;2023-07-08T13:06:28;99862.38;;;31.56;28.30
51759;BME280;66684;47.568;18.734;2023-07-08T13:09:02;99869.81;;;31.48;28.83
51759;BME280;66684;47.568;18.734;2023-07-08T13:11:30;99859.16;;;31.26;28.03
51759;BME280;66684;47.568;18.734;2023-07-08T13:13:59;99859.75;;;31.54;28.18
51759;BME280;66684;47.568;18.734;2023-07-08T13:16:31;99862.66;;;31.92;28.72
51759;BME280;66684;47.568;18.734;2023-07-08T13:18:58;99868.31;;;32.05;28.56
51759;BME280;66684;47.568;18.734;2023-07-08T13:21:24;99863.19;;;32.20;26.97
51759;BME280;66684;47.568;18.734;2023-07-08T13:23:50;99865.38;;;32.11;26.55
51759;BME280;66684;47.568;18.734;2023-07-08T13:26:18;99868.06;;;32.11;27.39
51759;BME280;66684;47.568;18.734;2023-07-08T13:28:45;99874.28;;;32.32;28.59